sensor_id;sensor_type;location;lat;lon;timestamp;temperature;humidity
64549;DHT22;49838;51.798;10.954;2022-09-09T00:01:57;21.60;45.30
64549;DHT22;49838;51.798;10.954;2022-09-09T00:04:32;21.60;45.40
64549;DHT22;49838;51.798;10.954;2022-09-09T00:07:03;21.60;45.50
64549;DHT22;49838;51.798;10.954;2022-09-09T00:09:38;21.50;45.40
64549;DHT22;49838;51.798;10.954;2022-09-09T00:12:15;21.50;45.50
64549;DHT22;49838;51.798;10.954;2022-09-09T00:14:47;21.50;45.60
64549;DHT22;49838;51.798;10.954;2022-09-09T00:17:20;21.40;45.70
64549;DHT22;49838;51.798;10.954;2022-09-09T00:20:01;21.40;45.80
64549;DHT22;49838;51.798;10.954;2022-09-09T00:22:32;21.30;45.90
64549;DHT22;49838;51.798;10.954;2022-09-09T00:25:05;21.40;46.10
64549;DHT22;49838;51.798;10.954;2022-09-09T00:27:43;21.30;46.00
64549;DHT22;49838;51.798;10.954;2022-09-09T00:30:14;21.30;46.30
64549;DHT22;49838;51.798;10.954;2022-09-09T00:32:45;21.30;46.40
64549;DHT22;49838;51.798;10.954;2022-09-09T00:35:16;21.20;46.30
64549;DHT22;49838;51.798;10.954;2022-09-09T00:37:48;21.20;46.10
64549;DHT22;49838;51.798;10.954;2022-09-09T00:40:24;21.10;45.90
64549;DHT22;49838;51.798;10.954;2022-09-09T00:43:03;21.20;46.00
64549;DHT22;49838;51.798;10.954;2022-09-09T00:45:52;21.10;45.90
64549;DHT22;49838;51.798;10.954;2022-09-09T00:48:34;21.10;46.60
64549;DHT22;49838;51.798;10.954;2022-09-09T00:51:13;21.10;45.80
64549;DHT22;49838;51.798;10.954;2022-09-09T00:53:55;21.10;45.80
64549;DHT22;49838;51.798;10.954;2022-09-09T00:56:36;21.20;45.90
64549;DHT22;49838;51.798;10.954;2022-09-09T00:59:12;21.20;45.80
64549;DHT22;49838;51.798;10.954;2022-09-09T01:01:48;21.20;45.90
64549;DHT22;49838;51.798;10.954;2022-09-09T01:04:16;21.20;45.90
64549;DHT22;49838;51.798;10.954;2022-09-09T01:06:53;21.20;45.90
64549;DHT22;49838;51.798;10.954;2022-09-09T01:09:29;21.20;46.00
64549;DHT22;49838;51.798;10.954;2022-09-09T01:12:09;21.20;46.10
64549;DHT22;49838;51.798;10.954;2022-09-09T01:14:42;21.20;46.10
64549;DHT22;49838;51.798;10.954;2022-09-09T01:17:15;21.10;46.10
64549;DHT22;49838;51.798;10.954;2022-09-09T01:19:50;21.20;46.20
64549;DHT22;49838;51.798;10.954;2022-09-09T01:22:28;21.10;46.10
64549;DHT22;49838;51.798;10.954;2022-09-09T01:25:11;21.10;46.00
64549;DHT22;49838;51.798;10.954;2022-09-09T01:27:47;21.10;46.00
64549;DHT22;49838;51.798;10.954;2022-09-09T01:30:17;21.10;46.10
64549;DHT22;49838;51.798;10.954;2022-09-09T01:32:46;21.10;46.10
64549;DHT22;49838;51.798;10.954;2022-09-09T01:35:22;21.10;46.10
64549;DHT22;49838;51.798;10.954;2022-09-09T01:37:58;21.10;46.10
64549;DHT22;49838;51.798;10.954;2022-09-09T01:40:26;21.10;46.10
64549;DHT22;49838;51.798;10.954;2022-09-09T01:42:55;21.10;46.20
64549;DHT22;49838;51.798;10.954;2022-09-09T01:45:24;21.10;46.10
64549;DHT22;49838;51.798;10.954;2022-09-09T01:47:52;21.10;46.10
64549;DHT22;49838;51.798;10.954;2022-09-09T01:50:20;21.10;46.10
64549;DHT22;49838;51.798;10.954;2022-09-09T01:52:49;21.00;45.90
64549;DHT22;49838;51.798;10.954;2022-09-09T01:55:23;21.10;46.20
64549;DHT22;49838;51.798;10.954;2022-09-09T01:58:00;21.00;46.00
64549;DHT22;49838;51.798;10.954;2022-09-09T02:00:41;21.00;46.10
64549;DHT22;49838;51.798;10.954;2022-09-09T02:03:17;21.10;46.10
64549;DHT22;49838;51.798;10.954;2022-09-09T02:05:51;21.10;46.10
64549;DHT22;49838;51.798;10.954;2022-09-09T02:08:29;21.00;46.00
64549;DHT22;49838;51.798;10.954;2022-09-09T02:11:07;21.00;46.00
64549;DHT22;49838;51.798;10.954;2022-09-09T02:13:41;21.10;46.10
64549;DHT22;49838;51.798;10.954;2022-09-09T02:16:12;21.10;46.20
64549;DHT22;49838;51.798;10.954;2022-09-09T02:18:45;21.10;46.20
64549;DHT22;49838;51.798;10.954;2022-09-09T02:21:17;21.10;46.30
64549;DHT22;49838;51.798;10.954;2022-09-09T02:23:47;21.10;46.10
64549;DHT22;49838;51.798;10.954;2022-09-09T02:26:17;21.10;46.10
64549;DHT22;49838;51.798;10.954;2022-09-09T02:28:50;21.10;46.20
64549;DHT22;49838;51.798;10.954;2022-09-09T02:31:20;21.20;46.30
64549;DHT22;49838;51.798;10.954;2022-09-09T02:33:51;21.20;46.30
64549;DHT22;49838;51.798;10.954;2022-09-09T02:36:23;21.20;46.20
64549;DHT22;49838;51.798;10.954;2022-09-09T02:38:53;21.20;46.20
64549;DHT22;49838;51.798;10.954;2022-09-09T02:41:23;21.20;46.30
64549;DHT22;49838;51.798;10.954;2022-09-09T02:43:56;21.20;46.20
64549;DHT22;49838;51.798;10.954;2022-09-09T02:46:29;21.20;46.30
64549;DHT22;49838;51.798;10.954;2022-09-09T02:49:08;21.20;46.30
64549;DHT22;49838;51.798;10.954;2022-09-09T02:51:39;21.20;46.10
64549;DHT22;49838;51.798;10.954;2022-09-09T02:54:16;21.20;46.10
64549;DHT22;49838;51.798;10.954;2022-09-09T02:56:49;21.30;46.30
64549;DHT22;49838;51.798;10.954;2022-09-09T02:59:21;21.30;46.20
64549;DHT22;49838;51.798;10.954;2022-09-09T03:01:51;21.30;46.30
64549;DHT22;49838;51.798;10.954;2022-09-09T03:04:19;21.30;46.20
64549;DHT22;49838;51.798;10.954;2022-09-09T03:06:47;21.30;46.20
64549;DHT22;49838;51.798;10.954;2022-09-09T03:09:15;21.30;46.20
64549;DHT22;49838;51.798;10.954;2022-09-09T03:11:42;21.40;46.20
64549;DHT22;49838;51.798;10.954;2022-09-09T03:14:10;21.30;46.20
64549;DHT22;49838;51.798;10.954;2022-09-09T03:16:39;21.30;46.20
64549;DHT22;49838;51.798;10.954;2022-09-09T03:19:08;21.30;46.10
64549;DHT22;49838;51.798;10.954;2022-09-09T03:21:35;21.30;46.00
64549;DHT22;49838;51.798;10.954;2022-09-09T03:24:03;21.30;46.10
64549;DHT22;49838;51.798;10.954;2022-09-09T03:26:30;21.30;46.00
64549;DHT22;49838;51.798;10.954;2022-09-09T03:28:58;21.30;46.00
64549;DHT22;49838;51.798;10.954;2022-09-09T03:31:27;21.30;46.10
64549;DHT22;49838;51.798;10.954;2022-09-09T03:33:57;21.30;46.10
64549;DHT22;49838;51.798;10.954;2022-09-09T03:36:25;21.30;46.10
64549;DHT22;49838;51.798;10.954;2022-09-09T03:38:53;21.30;46.00
64549;DHT22;49838;51.798;10.954;2022-09-09T03:41:21;21.30;46.10
64549;DHT22;49838;51.798;10.954;2022-09-09T03:43:49;21.30;46.00
64549;DHT22;49838;51.798;10.954;2022-09-09T03:46:17;21.30;46.00
64549;DHT22;49838;51.798;10.954;2022-09-09T03:48:45;21.30;46.00
64549;DHT22;49838;51.798;10.954;2022-09-09T03:51:13;21.30;46.10
64549;DHT22;49838;51.798;10.954;2022-09-09T03:53:41;21.30;46.10
64549;DHT22;49838;51.798;10.954;2022-09-09T03:56:08;21.30;46.00
64549;DHT22;49838;51.798;10.954;2022-09-09T03:58:36;21.30;45.90
64549;DHT22;49838;51.798;10.954;2022-09-09T04:01:05;21.30;45.90
64549;DHT22;49838;51.798;10.954;2022-09-09T04:03:34;21.30;45.80
64549;DHT22;49838;51.798;10.954;2022-09-09T04:06:02;21.40;45.80
64549;DHT22;49838;51.798;10.954;2022-09-09T04:08:32;21.40;45.70
64549;DHT22;49838;51.798;10.954;2022-09-09T04:10:59;21.50;45.80
64549;DHT22;49838;51.798;10.954;2022-09-09T04:13:31;21.50;45.70
64549;DHT22;49838;51.798;10.954;2022-09-09T04:16:00;21.60;45.70
64549;DHT22;49838;51.798;10.954;2022-09-09T04:18:29;21.60;45.60
64549;DHT22;49838;51.798;10.954;2022-09-09T04:20:56;21.70;46.30
64549;DHT22;49838;51.798;10.954;2022-09-09T04:23:24;21.70;45.50
64549;DHT22;49838;51.798;10.954;2022-09-09T04:25:54;21.70;45.40
64549;DHT22;49838;51.798;10.954;2022-09-09T04:28:23;21.70;45.40
64549;DHT22;49838;51.798;10.954;2022-09-09T04:30:52;21.70;45.50
64549;DHT22;49838;51.798;10.954;2022-09-09T04:33:20;21.70;45.50
64549;DHT22;49838;51.798;10.954;2022-09-09T04:35:48;21.70;45.50
64549;DHT22;49838;51.798;10.954;2022-09-09T04:38:16;21.60;45.40
64549;DHT22;49838;51.798;10.954;2022-09-09T04:40:45;21.60;45.50
64549;DHT22;49838;51.798;10.954;2022-09-09T04:43:15;21.50;45.50
64549;DHT22;49838;51.798;10.954;2022-09-09T04:45:42;21.50;45.50
64549;DHT22;49838;51.798;10.954;2022-09-09T04:48:09;21.50;45.50
64549;DHT22;49838;51.798;10.954;2022-09-09T04:50:37;21.50;46.10
64549;DHT22;49838;51.798;10.954;2022-09-09T04:53:04;21.50;45.40
64549;DHT22;49838;51.798;10.954;2022-09-09T04:55:33;21.60;45.40
64549;DHT22;49838;51.798;10.954;2022-09-09T04:58:02;21.60;45.30
64549;DHT22;49838;51.798;10.954;2022-09-09T05:00:32;21.60;45.30
64549;DHT22;49838;51.798;10.954;2022-09-09T05:03:02;21.60;45.20
64549;DHT22;49838;51.798;10.954;2022-09-09T05:05:31;21.60;45.30
64549;DHT22;49838;51.798;10.954;2022-09-09T05:08:00;21.60;45.30
64549;DHT22;49838;51.798;10.954;2022-09-09T05:10:29;21.60;45.20
64549;DHT22;49838;51.798;10.954;2022-09-09T05:12:56;21.60;45.10
64549;DHT22;49838;51.798;10.954;2022-09-09T05:15:24;21.70;45.20
64549;DHT22;49838;51.798;10.954;2022-09-09T05:17:52;21.70;45.20
64549;DHT22;49838;51.798;10.954;2022-09-09T05:20:24;21.80;45.20
64549;DHT22;49838;51.798;10.954;2022-09-09T05:22:52;21.70;45.10
64549;DHT22;49838;51.798;10.954;2022-09-09T05:25:19;21.80;45.20
64549;DHT22;49838;51.798;10.954;2022-09-09T05:27:48;21.80;45.20
64549;DHT22;49838;51.798;10.954;2022-09-09T05:30:15;21.80;45.20
64549;DHT22;49838;51.798;10.954;2022-09-09T05:32:44;21.80;45.30
64549;DHT22;49838;51.798;10.954;2022-09-09T05:35:15;21.80;45.40
64549;DHT22;49838;51.798;10.954;2022-09-09T05:37:43;21.80;45.50
64549;DHT22;49838;51.798;10.954;2022-09-09T05:40:11;21.90;45.60
64549;DHT22;49838;51.798;10.954;2022-09-09T05:42:39;21.90;45.60
64549;DHT22;49838;51.798;10.954;2022-09-09T05:45:06;21.90;45.80
64549;DHT22;49838;51.798;10.954;2022-09-09T05:47:34;21.90;46.20
64549;DHT22;49838;51.798;10.954;2022-09-09T05:50:03;21.90;45.90
64549;DHT22;49838;51.798;10.954;2022-09-09T05:52:33;21.90;45.90
64549;DHT22;49838;51.798;10.954;2022-09-09T05:55:00;22.00;45.90
64549;DHT22;49838;51.798;10.954;2022-09-09T05:57:29;22.00;45.90
64549;DHT22;49838;51.798;10.954;2022-09-09T05:59:56;22.30;46.00
64549;DHT22;49838;51.798;10.954;2022-09-09T06:02:23;22.50;45.80
64549;DHT22;49838;51.798;10.954;2022-09-09T06:04:51;22.50;45.70
64549;DHT22;49838;51.798;10.954;2022-09-09T06:07:21;22.50;45.80
64549;DHT22;49838;51.798;10.954;2022-09-09T06:09:50;22.50;45.80
64549;DHT22;49838;51.798;10.954;2022-09-09T06:12:17;22.50;45.80
64549;DHT22;49838;51.798;10.954;2022-09-09T06:14:44;22.60;45.80
64549;DHT22;49838;51.798;10.954;2022-09-09T06:17:12;22.60;45.90
64549;DHT22;49838;51.798;10.954;2022-09-09T06:19:41;22.60;45.70
64549;DHT22;49838;51.798;10.954;2022-09-09T06:22:08;22.80;45.80
64549;DHT22;49838;51.798;10.954;2022-09-09T06:24:38;23.20;46.10
64549;DHT22;49838;51.798;10.954;2022-09-09T06:27:07;23.70;45.90
64549;DHT22;49838;51.798;10.954;2022-09-09T06:29:34;23.90;45.80
64549;DHT22;49838;51.798;10.954;2022-09-09T06:32:01;24.10;45.50
64549;DHT22;49838;51.798;10.954;2022-09-09T06:34:29;24.00;45.40
64549;DHT22;49838;51.798;10.954;2022-09-09T06:36:57;24.00;45.50
64549;DHT22;49838;51.798;10.954;2022-09-09T06:39:24;24.00;45.50
64549;DHT22;49838;51.798;10.954;2022-09-09T06:41:52;24.00;45.50
64549;DHT22;49838;51.798;10.954;2022-09-09T06:44:21;24.00;45.60
64549;DHT22;49838;51.798;10.954;2022-09-09T06:46:48;24.20;45.70
64549;DHT22;49838;51.798;10.954;2022-09-09T06:49:16;24.20;45.50
64549;DHT22;49838;51.798;10.954;2022-09-09T06:51:43;24.40;45.50
64549;DHT22;49838;51.798;10.954;2022-09-09T06:54:10;24.40;45.60
64549;DHT22;49838;51.798;10.954;2022-09-09T06:56:39;24.40;45.50
64549;DHT22;49838;51.798;10.954;2022-09-09T06:59:08;24.50;45.50
64549;DHT22;49838;51.798;10.954;2022-09-09T07:01:38;24.70;45.50
64549;DHT22;49838;51.798;10.954;2022-09-09T07:04:07;24.90;45.60
64549;DHT22;49838;51.798;10.954;2022-09-09T07:06:37;25.20;45.50
64549;DHT22;49838;51.798;10.954;2022-09-09T07:09:06;25.40;45.40
64549;DHT22;49838;51.798;10.954;2022-09-09T07:11:37;25.60;45.30
64549;DHT22;49838;51.798;10.954;2022-09-09T07:14:05;25.70;45.20
64549;DHT22;49838;51.798;10.954;2022-09-09T07:16:33;25.80;45.20
64549;DHT22;49838;51.798;10.954;2022-09-09T07:19:04;25.70;44.90
64549;DHT22;49838;51.798;10.954;2022-09-09T07:21:32;25.80;45.00
64549;DHT22;49838;51.798;10.954;2022-09-09T07:24:00;25.80;45.00
64549;DHT22;49838;51.798;10.954;2022-09-09T07:26:28;26.00;45.10
64549;DHT22;49838;51.798;10.954;2022-09-09T07:28:57;26.00;44.80
64549;DHT22;49838;51.798;10.954;2022-09-09T07:31:25;26.00;44.80
64549;DHT22;49838;51.798;10.954;2022-09-09T07:33:53;26.00;44.80
64549;DHT22;49838;51.798;10.954;2022-09-09T07:36:23;26.00;44.80
64549;DHT22;49838;51.798;10.954;2022-09-09T07:38:52;26.00;44.70
64549;DHT22;49838;51.798;10.954;2022-09-09T07:41:21;26.00;44.70
64549;DHT22;49838;51.798;10.954;2022-09-09T07:43:50;26.00;44.60
64549;DHT22;49838;51.798;10.954;2022-09-09T07:46:20;26.00;44.60
64549;DHT22;49838;51.798;10.954;2022-09-09T07:48:49;25.90;44.40
64549;DHT22;49838;51.798;10.954;2022-09-09T07:51:19;25.90;44.50
64549;DHT22;49838;51.798;10.954;2022-09-09T07:53:51;25.90;44.50
64549;DHT22;49838;51.798;10.954;2022-09-09T07:56:20;25.90;44.40
64549;DHT22;49838;51.798;10.954;2022-09-09T07:58:50;25.90;44.40
64549;DHT22;49838;51.798;10.954;2022-09-09T08:01:18;25.80;44.40
64549;DHT22;49838;51.798;10.954;2022-09-09T08:03:52;25.80;44.50
64549;DHT22;49838;51.798;10.954;2022-09-09T08:06:21;25.90;44.60
64549;DHT22;49838;51.798;10.954;2022-09-09T08:08:52;26.00;44.70
64549;DHT22;49838;51.798;10.954;2022-09-09T08:11:21;26.10;44.70
64549;DHT22;49838;51.798;10.954;2022-09-09T08:13:50;26.30;44.70
64549;DHT22;49838;51.798;10.954;2022-09-09T08:16:19;26.50;44.70
64549;DHT22;49838;51.798;10.954;2022-09-09T08:18:48;26.70;45.00
64549;DHT22;49838;51.798;10.954;2022-09-09T08:21:18;27.30;45.20
64549;DHT22;49838;51.798;10.954;2022-09-09T08:23:47;27.70;45.50
64549;DHT22;49838;51.798;10.954;2022-09-09T08:26:17;28.50;45.90
64549;DHT22;49838;51.798;10.954;2022-09-09T08:28:48;29.40;46.20
64549;DHT22;49838;51.798;10.954;2022-09-09T08:31:17;30.20;46.50
64549;DHT22;49838;51.798;10.954;2022-09-09T08:33:46;31.00;46.70
64549;DHT22;49838;51.798;10.954;2022-09-09T08:36:15;31.90;46.40
64549;DHT22;49838;51.798;10.954;2022-09-09T08:38:43;32.60;45.40
64549;DHT22;49838;51.798;10.954;2022-09-09T08:41:26;33.20;44.40
64549;DHT22;49838;51.798;10.954;2022-09-09T08:44:07;33.80;44.70
64549;DHT22;49838;51.798;10.954;2022-09-09T08:46:42;34.60;44.40
64549;DHT22;49838;51.798;10.954;2022-09-09T08:49:20;35.20;44.10
64549;DHT22;49838;51.798;10.954;2022-09-09T08:52:06;35.90;44.70
64549;DHT22;49838;51.798;10.954;2022-09-09T08:54:41;36.60;43.40
64549;DHT22;49838;51.798;10.954;2022-09-09T08:57:11;36.90;41.90
64549;DHT22;49838;51.798;10.954;2022-09-09T08:59:44;36.90;41.80
64549;DHT22;49838;51.798;10.954;2022-09-09T09:02:14;36.70;41.10
64549;DHT22;49838;51.798;10.954;2022-09-09T09:04:51;36.40;40.50
64549;DHT22;49838;51.798;10.954;2022-09-09T09:07:32;36.00;39.90
64549;DHT22;49838;51.798;10.954;2022-09-09T09:10:10;35.70;40.20
64549;DHT22;49838;51.798;10.954;2022-09-09T09:12:44;35.50;39.80
64549;DHT22;49838;51.798;10.954;2022-09-09T09:15:14;35.50;38.80
64549;DHT22;49838;51.798;10.954;2022-09-09T09:17:45;35.40;38.90
64549;DHT22;49838;51.798;10.954;2022-09-09T09:20:14;35.20;38.00
64549;DHT22;49838;51.798;10.954;2022-09-09T09:22:47;35.00;38.70
64549;DHT22;49838;51.798;10.954;2022-09-09T09:25:17;34.90;37.40
64549;DHT22;49838;51.798;10.954;2022-09-09T09:27:49;34.80;38.40
64549;DHT22;49838;51.798;10.954;2022-09-09T09:30:22;34.40;36.90
64549;DHT22;49838;51.798;10.954;2022-09-09T09:32:53;34.00;36.90
64549;DHT22;49838;51.798;10.954;2022-09-09T09:35:23;33.70;37.50
64549;DHT22;49838;51.798;10.954;2022-09-09T09:37:50;33.70;37.20
64549;DHT22;49838;51.798;10.954;2022-09-09T09:40:20;34.00;38.20
64549;DHT22;49838;51.798;10.954;2022-09-09T09:42:51;34.50;38.60
64549;DHT22;49838;51.798;10.954;2022-09-09T09:45:23;35.10;38.30
64549;DHT22;49838;51.798;10.954;2022-09-09T09:47:58;35.60;37.80
64549;DHT22;49838;51.798;10.954;2022-09-09T09:50:27;36.20;37.90
64549;DHT22;49838;51.798;10.954;2022-09-09T09:52:55;36.80;38.10
64549;DHT22;49838;51.798;10.954;2022-09-09T09:55:24;37.40;38.40
64549;DHT22;49838;51.798;10.954;2022-09-09T09:57:54;37.90;38.20
64549;DHT22;49838;51.798;10.954;2022-09-09T10:00:28;37.90;37.00
64549;DHT22;49838;51.798;10.954;2022-09-09T10:02:55;37.70;36.30
64549;DHT22;49838;51.798;10.954;2022-09-09T10:05:24;37.80;36.60
64549;DHT22;49838;51.798;10.954;2022-09-09T10:08:02;37.60;36.30
64549;DHT22;49838;51.798;10.954;2022-09-09T10:10:34;37.50;35.90
64549;DHT22;49838;51.798;10.954;2022-09-09T10:13:14;37.20;35.30
64549;DHT22;49838;51.798;10.954;2022-09-09T10:15:48;36.70;35.40
64549;DHT22;49838;51.798;10.954;2022-09-09T10:18:31;36.10;35.80
64549;DHT22;49838;51.798;10.954;2022-09-09T10:21:09;35.70;35.90
64549;DHT22;49838;51.798;10.954;2022-09-09T10:23:54;35.20;35.40
64549;DHT22;49838;51.798;10.954;2022-09-09T10:26:44;34.80;35.60
64549;DHT22;49838;51.798;10.954;2022-09-09T10:29:24;34.40;36.00
64549;DHT22;49838;51.798;10.954;2022-09-09T10:32:06;34.30;36.00
64549;DHT22;49838;51.798;10.954;2022-09-09T10:34:52;34.50;36.60
64549;DHT22;49838;51.798;10.954;2022-09-09T10:37:38;34.90;36.70
64549;DHT22;49838;51.798;10.954;2022-09-09T10:40:17;35.30;36.70
64549;DHT22;49838;51.798;10.954;2022-09-09T10:42:56;35.70;36.90
64549;DHT22;49838;51.798;10.954;2022-09-09T10:45:34;36.30;37.10
64549;DHT22;49838;51.798;10.954;2022-09-09T10:48:10;36.90;37.90
64549;DHT22;49838;51.798;10.954;2022-09-09T10:50:53;37.20;37.10
64549;DHT22;49838;51.798;10.954;2022-09-09T10:53:36;37.20;36.00
64549;DHT22;49838;51.798;10.954;2022-09-09T10:56:09;36.90;35.50
64549;DHT22;49838;51.798;10.954;2022-09-09T10:58:40;36.50;34.70
64549;DHT22;49838;51.798;10.954;2022-09-09T11:01:14;36.30;34.70
64549;DHT22;49838;51.798;10.954;2022-09-09T11:03:46;36.30;34.80
64549;DHT22;49838;51.798;10.954;2022-09-09T11:06:22;36.40;35.30
64549;DHT22;49838;51.798;10.954;2022-09-09T11:08:55;36.30;35.50
64549;DHT22;49838;51.798;10.954;2022-09-09T11:11:29;36.10;35.40
64549;DHT22;49838;51.798;10.954;2022-09-09T11:14:01;36.20;35.20
64549;DHT22;49838;51.798;10.954;2022-09-09T11:16:38;36.10;35.00
64549;DHT22;49838;51.798;10.954;2022-09-09T11:19:13;35.80;34.10
64549;DHT22;49838;51.798;10.954;2022-09-09T11:21:47;35.50;34.30
64549;DHT22;49838;51.798;10.954;2022-09-09T11:24:18;35.40;34.10
64549;DHT22;49838;51.798;10.954;2022-09-09T11:26:51;35.20;34.00
64549;DHT22;49838;51.798;10.954;2022-09-09T11:29:31;34.90;34.10
64549;DHT22;49838;51.798;10.954;2022-09-09T11:32:16;34.80;34.20
64549;DHT22;49838;51.798;10.954;2022-09-09T11:34:56;34.60;34.30
64549;DHT22;49838;51.798;10.954;2022-09-09T11:37:37;34.50;34.50
64549;DHT22;49838;51.798;10.954;2022-09-09T11:40:19;34.60;34.30
64549;DHT22;49838;51.798;10.954;2022-09-09T11:42:49;34.50;34.20
64549;DHT22;49838;51.798;10.954;2022-09-09T11:45:27;34.40;34.00
64549;DHT22;49838;51.798;10.954;2022-09-09T11:47:57;34.20;34.00
64549;DHT22;49838;51.798;10.954;2022-09-09T11:50:30;34.10;33.80
64549;DHT22;49838;51.798;10.954;2022-09-09T11:53:04;33.80;34.00
64549;DHT22;49838;51.798;10.954;2022-09-09T11:56:02;33.60;34.30
64549;DHT22;49838;51.798;10.954;2022-09-09T11:58:38;33.50;34.40
64549;DHT22;49838;51.798;10.954;2022-09-09T12:01:14;33.30;34.50
64549;DHT22;49838;51.798;10.954;2022-09-09T12:04:01;33.20;34.70
64549;DHT22;49838;51.798;10.954;2022-09-09T12:06:55;33.00;34.70
64549;DHT22;49838;51.798;10.954;2022-09-09T12:09:27;32.90;34.50
64549;DHT22;49838;51.798;10.954;2022-09-09T12:12:05;32.80;34.50
64549;DHT22;49838;51.798;10.954;2022-09-09T12:14:57;32.70;34.10
64549;DHT22;49838;51.798;10.954;2022-09-09T12:17:27;32.60;34.40
64549;DHT22;49838;51.798;10.954;2022-09-09T12:20:02;32.50;34.60
64549;DHT22;49838;51.798;10.954;2022-09-09T12:22:37;32.40;34.60
64549;DHT22;49838;51.798;10.954;2022-09-09T12:25:16;32.30;34.80
64549;DHT22;49838;51.798;10.954;2022-09-09T12:27:58;32.30;34.80
64549;DHT22;49838;51.798;10.954;2022-09-09T12:30:31;32.20;34.70
64549;DHT22;49838;51.798;10.954;2022-09-09T12:33:08;32.20;34.60
64549;DHT22;49838;51.798;10.954;2022-09-09T12:35:40;32.20;34.50
64549;DHT22;49838;51.798;10.954;2022-09-09T12:38:12;32.20;34.50
64549;DHT22;49838;51.798;10.954;2022-09-09T12:40:53;32.30;34.40
64549;DHT22;49838;51.798;10.954;2022-09-09T12:43:22;32.30;34.20
64549;DHT22;49838;51.798;10.954;2022-09-09T12:45:51;32.30;34.10
64549;DHT22;49838;51.798;10.954;2022-09-09T12:48:25;32.40;34.30
64549;DHT22;49838;51.798;10.954;2022-09-09T12:50:59;32.30;34.30
64549;DHT22;49838;51.798;10.954;2022-09-09T12:53:29;32.30;34.20
64549;DHT22;49838;51.798;10.954;2022-09-09T12:56:00;32.30;34.00
64549;DHT22;49838;51.798;10.954;2022-09-09T12:58:30;32.40;34.00
64549;DHT22;49838;51.798;10.954;2022-09-09T13:00:59;32.40;34.20
64549;DHT22;49838;51.798;10.954;2022-09-09T13:03:30;32.50;34.30
64549;DHT22;49838;51.798;10.954;2022-09-09T13:06:10;32.60;34.00
64549;DHT22;49838;51.798;10.954;2022-09-09T13:08:41;32.70;33.00
64549;DHT22;49838;51.798;10.954;2022-09-09T13:11:10;32.70;32.90
64549;DHT22;49838;51.798;10.954;2022-09-09T13:13:42;32.60;33.00
64549;DHT22;49838;51.798;10.954;2022-09-09T13:16:22;32.40;33.30
64549;DHT22;49838;51.798;10.954;2022-09-09T13:18:52;32.40;33.50
64549;DHT22;49838;51.798;10.954;2022-09-09T13:21:31;32.50;33.10
64549;DHT22;49838;51.798;10.954;2022-09-09T13:24:00;32.50;32.60
64549;DHT22;49838;51.798;10.954;2022-09-09T13:26:30;32.60;32.60
64549;DHT22;49838;51.798;10.954;2022-09-09T13:29:07;32.70;33.00
64549;DHT22;49838;51.798;10.954;2022-09-09T13:31:43;32.70;32.80
64549;DHT22;49838;51.798;10.954;2022-09-09T13:34:12;32.80;32.90
64549;DHT22;49838;51.798;10.954;2022-09-09T13:36:41;32.90;32.70
64549;DHT22;49838;51.798;10.954;2022-09-09T13:39:15;32.90;32.80
64549;DHT22;49838;51.798;10.954;2022-09-09T13:41:45;32.70;31.90
64549;DHT22;49838;51.798;10.954;2022-09-09T13:44:17;32.60;31.60
64549;DHT22;49838;51.798;10.954;2022-09-09T13:46:58;32.50;31.90
64549;DHT22;49838;51.798;10.954;2022-09-09T13:49:28;32.60;32.20
64549;DHT22;49838;51.798;10.954;2022-09-09T13:52:04;32.70;32.20
64549;DHT22;49838;51.798;10.954;2022-09-09T13:54:36;32.70;31.90
64549;DHT22;49838;51.798;10.954;2022-09-09T13:57:03;32.70;32.00
64549;DHT22;49838;51.798;10.954;2022-09-09T13:59:30;32.60;31.80
64549;DHT22;49838;51.798;10.954;2022-09-09T14:01:58;32.50;32.00
64549;DHT22;49838;51.798;10.954;2022-09-09T14:04:28;32.50;31.80
64549;DHT22;49838;51.798;10.954;2022-09-09T14:06:56;32.30;31.40
64549;DHT22;49838;51.798;10.954;2022-09-09T14:09:25;32.20;31.40
64549;DHT22;49838;51.798;10.954;2022-09-09T14:11:53;32.00;31.50
64549;DHT22;49838;51.798;10.954;2022-09-09T14:14:21;31.90;31.40
64549;DHT22;49838;51.798;10.954;2022-09-09T14:16:48;31.80;31.60
64549;DHT22;49838;51.798;10.954;2022-09-09T14:19:15;31.70;31.80
64549;DHT22;49838;51.798;10.954;2022-09-09T14:21:43;31.70;31.90
64549;DHT22;49838;51.798;10.954;2022-09-09T14:24:11;31.60;32.00
64549;DHT22;49838;51.798;10.954;2022-09-09T14:26:39;31.60;32.20
64549;DHT22;49838;51.798;10.954;2022-09-09T14:29:07;31.50;32.30
64549;DHT22;49838;51.798;10.954;2022-09-09T14:31:34;31.50;32.30
64549;DHT22;49838;51.798;10.954;2022-09-09T14:34:01;31.50;32.40
64549;DHT22;49838;51.798;10.954;2022-09-09T14:36:29;31.60;32.00
64549;DHT22;49838;51.798;10.954;2022-09-09T14:38:56;31.50;31.90
64549;DHT22;49838;51.798;10.954;2022-09-09T14:41:24;31.60;32.10
64549;DHT22;49838;51.798;10.954;2022-09-09T14:43:52;31.60;32.10
64549;DHT22;49838;51.798;10.954;2022-09-09T14:46:20;31.60;32.10
64549;DHT22;49838;51.798;10.954;2022-09-09T14:48:47;31.60;32.10
64549;DHT22;49838;51.798;10.954;2022-09-09T14:51:16;31.60;32.20
64549;DHT22;49838;51.798;10.954;2022-09-09T14:53:45;31.60;32.20
64549;DHT22;49838;51.798;10.954;2022-09-09T14:56:14;31.60;32.10
64549;DHT22;49838;51.798;10.954;2022-09-09T14:58:43;31.60;31.90
64549;DHT22;49838;51.798;10.954;2022-09-09T15:01:14;31.50;31.60
64549;DHT22;49838;51.798;10.954;2022-09-09T15:03:48;31.40;31.60
64549;DHT22;49838;51.798;10.954;2022-09-09T15:06:16;31.30;31.80
64549;DHT22;49838;51.798;10.954;2022-09-09T15:08:44;31.30;32.10
64549;DHT22;49838;51.798;10.954;2022-09-09T15:11:12;31.30;32.20
64549;DHT22;49838;51.798;10.954;2022-09-09T15:13:41;31.20;32.20
64549;DHT22;49838;51.798;10.954;2022-09-09T15:16:10;31.20;32.40
64549;DHT22;49838;51.798;10.954;2022-09-09T15:18:40;31.20;32.10
64549;DHT22;49838;51.798;10.954;2022-09-09T15:21:09;31.20;32.10
64549;DHT22;49838;51.798;10.954;2022-09-09T15:23:37;31.20;32.20
64549;DHT22;49838;51.798;10.954;2022-09-09T15:26:04;31.00;32.10
64549;DHT22;49838;51.798;10.954;2022-09-09T15:28:32;30.90;32.10
64549;DHT22;49838;51.798;10.954;2022-09-09T15:31:04;30.80;32.20
64549;DHT22;49838;51.798;10.954;2022-09-09T15:33:33;30.60;32.10
64549;DHT22;49838;51.798;10.954;2022-09-09T15:36:13;30.40;32.10
64549;DHT22;49838;51.798;10.954;2022-09-09T15:38:43;30.20;32.20
64549;DHT22;49838;51.798;10.954;2022-09-09T15:41:11;30.10;32.30
64549;DHT22;49838;51.798;10.954;2022-09-09T15:43:42;29.90;32.30